Terminal Aerodrome Forecast
Issued by NWS

Home | Current Version | Previous Version | Text Only | Print | Product List | Glossary On
Versions: 1 2 3 4 5 6 7 8 9 10 11 12 13
000
FTUS45 KTFX 021100
TAFCTB
TAF
KCTB 021120Z 0212/0312 28012G18KT P6SM SCT050 BKN090
     FM021500 35025G35KT 2SM -SN BLSN SCT006 OVC015
      TEMPO 0216/0220 3/4SM BLSN BKN006
     FM030200 36012KT P6SM VCSH SCT015 BKN030
     FM030600 35010KT P6SM BKN040=

USA.gov is the U.S. government's official web portal to all federal, state and local government web resources and services.